Time,TemperatureF,DewpointF,PressureIn,WindDirection,WindDirectionDegrees,WindSpeedMPH,WindSpeedGustMPH,Humidity,HourlyPrecipIn,Conditions,Clouds,dailyrainin,SoftwareType,DateUTC
2015-07-02 05:56:00,63.3,61.2,29.89,SE,130,0.0,0.0,93,0.00,,---,0.00,VWS V14.00,2015-07-02 11:56:00,
2015-07-02 06:02:00,63.5,61.4,29.89,SE,130,0.0,0.0,93,0.00,,---,0.00,VWS V14.00,2015-07-02 12:02:00,
2015-07-02 06:08:00,63.8,61.7,29.89,SE,130,0.0,0.0,93,0.00,,---,0.00,VWS V14.00,2015-07-02 12:08:00,
2015-07-02 06:14:00,64.0,61.9,29.89,SE,130,0.0,0.0,93,0.00,,---,0.00,VWS V14.00,2015-07-02 12:14:00,
2015-07-02 06:20:00,64.2,62.1,29.89,SE,130,0.0,0.0,93,0.00,,---,0.00,VWS V14.00,2015-07-02 12:20:00,
2015-07-02 06:26:00,64.3,62.2,29.89,SE,130,0.0,0.0,93,0.00,,---,0.00,VWS V14.00,2015-07-02 12:26:00,
2015-07-02 06:31:00,64.4,62.3,29.89,SE,130,0.0,0.0,93,0.00,,---,0.00,VWS V14.00,2015-07-02 12:31:00,
2015-07-02 06:36:00,64.5,62.4,29.89,SE,130,0.0,0.0,93,0.00,,---,0.00,VWS V14.00,2015-07-02 12:36:00,
2015-07-02 06:41:00,64.6,62.5,29.89,SE,131,0.0,0.0,93,0.00,,---,0.00,VWS V14.00,2015-07-02 12:41:00,
2015-07-02 06:47:00,64.8,63.0,29.89,SE,130,0.0,0.0,94,0.00,,---,0.00,VWS V14.00,2015-07-02 12:47:00,
2015-07-02 06:53:00,65.0,63.2,29.89,SE,131,0.0,0.0,94,0.00,,---,0.00,VWS V14.00,2015-07-02 12:53:00,
2015-07-02 07:01:00,65.3,63.2,29.89,SE,131,0.0,0.0,93,0.00,,---,0.00,VWS V14.00,2015-07-02 13:01:00,
2015-07-02 07:10:00,65.4,63.6,29.89,West,261,0.0,0.0,94,0.00,,---,0.00,VWS V14.00,2015-07-02 13:10:00,
2015-07-02 07:16:00,65.5,63.7,29.89,West,262,0.0,0.0,94,0.00,,---,0.00,VWS V14.00,2015-07-02 13:16:00,
2015-07-02 07:21:00,65.9,64.1,29.89,WNW,288,0.0,0.0,94,0.00,,---,0.00,VWS V14.00,2015-07-02 13:21:00,
2015-07-02 07:28:00,66.4,64.6,29.89,NW,317,0.0,0.0,94,0.00,,---,0.00,VWS V14.00,2015-07-02 13:28:00,
2015-07-02 07:36:00,66.2,64.4,29.89,NNW,339,11.0,12.0,94,0.00,,---,0.01,VWS V14.00,2015-07-02 13:36:00,
2015-07-02 07:41:00,66.1,64.0,29.89,NNW,343,11.0,15.0,93,0.00,,---,0.01,VWS V14.00,2015-07-02 13:41:00,
2015-07-02 07:46:00,66.4,64.3,29.89,North,355,6.0,10.0,93,0.00,,---,0.01,VWS V14.00,2015-07-02 13:46:00,
2015-07-02 07:53:00,66.9,64.8,29.89,North,355,3.0,7.0,93,0.00,,---,0.01,VWS V14.00,2015-07-02 13:53:00,
2015-07-02 08:00:00,67.8,65.7,29.89,NNW,348,2.0,5.0,93,0.00,,---,0.01,VWS V14.00,2015-07-02 14:00:00,
2015-07-02 08:06:00,68.9,66.8,29.89,NNE,24,6.0,7.0,93,0.00,,---,0.01,VWS V14.00,2015-07-02 14:06:00,
2015-07-02 08:11:00,69.8,67.4,29.89,NNW,344,12.0,12.0,92,0.00,,---,0.01,VWS V14.00,2015-07-02 14:11:00,
2015-07-02 08:18:00,70.4,65.3,29.89,North,360,11.0,15.0,84,0.00,,---,0.01,VWS V14.00,2015-07-02 14:18:00,
2015-07-02 08:25:00,70.9,64.8,29.89,North,351,12.0,15.0,81,0.00,,---,0.01,VWS V14.00,2015-07-02 14:25:00,
2015-07-02 08:31:00,71.0,64.5,29.89,NNE,32,17.0,19.0,80,0.00,,---,0.01,VWS V14.00,2015-07-02 14:31:00,
2015-07-02 08:41:00,70.4,62.5,29.89,NE,39,10.0,23.0,76,0.00,,---,0.01,VWS V14.00,2015-07-02 14:41:00,
2015-07-02 08:48:00,70.4,62.8,29.89,NNE,32,9.0,18.0,77,0.00,,---,0.01,VWS V14.00,2015-07-02 14:48:00,
2015-07-02 08:55:00,69.9,62.0,29.89,NNE,30,11.0,16.0,76,0.00,,---,0.01,VWS V14.00,2015-07-02 14:55:00,
2015-07-02 09:02:00,69.1,61.2,29.89,North,360,11.0,17.0,76,0.00,,---,0.01,VWS V14.00,2015-07-02 15:02:00,
2015-07-02 09:09:00,68.6,60.7,29.89,North,355,10.0,19.0,76,0.00,,---,0.01,VWS V14.00,2015-07-02 15:09:00,
2015-07-02 09:15:00,68.4,60.9,29.89,NNE,27,12.0,19.0,77,0.00,,---,0.01,VWS V14.00,2015-07-02 15:15:00,
2015-07-02 09:21:00,68.2,60.3,29.89,NNE,17,11.0,15.0,76,0.00,,---,0.01,VWS V14.00,2015-07-02 15:21:00,
2015-07-02 09:28:00,68.3,59.7,29.89,NNE,13,14.0,19.0,74,0.00,,---,0.01,VWS V14.00,2015-07-02 15:28:00,
2015-07-02 09:45:00,69.7,59.9,29.89,NNE,22,0.0,0.0,71,0.00,,---,0.01,VWS V14.00,2015-07-02 15:45:00,
2015-07-02 09:51:00,70.6,60.3,29.89,NE,40,0.0,0.0,70,0.00,,---,0.01,VWS V14.00,2015-07-02 15:51:00,
2015-07-02 09:58:00,71.4,60.3,29.89,NE,51,0.0,0.0,68,0.00,,---,0.01,VWS V14.00,2015-07-02 15:58:00,
2015-07-02 10:06:00,71.3,59.8,29.89,NE,52,0.0,0.0,67,0.00,,---,0.01,VWS V14.00,2015-07-02 16:06:00,
2015-07-02 10:11:00,70.8,59.3,29.89,North,355,0.0,0.0,67,0.00,,---,0.01,VWS V14.00,2015-07-02 16:11:00,
2015-07-02 10:16:00,70.8,59.3,29.89,NNE,14,0.0,0.0,67,0.00,,---,0.01,VWS V14.00,2015-07-02 16:16:00,
2015-07-02 10:22:00,70.9,59.0,29.89,NNE,26,9.0,12.0,66,0.00,,---,0.01,VWS V14.00,2015-07-02 16:22:00,
2015-07-02 10:30:00,70.6,58.7,29.89,NE,35,0.0,0.0,66,0.00,,---,0.01,VWS V14.00,2015-07-02 16:30:00,
2015-07-02 10:36:00,71.4,60.3,29.89,North,360,0.0,0.0,68,0.00,,---,0.01,VWS V14.00,2015-07-02 16:36:00,
2015-07-02 10:42:00,71.6,58.8,29.89,NNE,24,0.0,0.0,64,0.00,,---,0.01,VWS V14.00,2015-07-02 16:42:00,
2015-07-02 10:47:00,71.8,59.4,29.89,NE,38,0.0,0.0,65,0.00,,---,0.01,VWS V14.00,2015-07-02 16:47:00,
2015-07-02 10:54:00,72.1,59.3,29.89,North,360,0.0,0.0,64,0.00,,---,0.01,VWS V14.00,2015-07-02 16:54:00,
2015-07-02 11:01:00,72.7,59.4,29.89,NE,55,0.0,0.0,63,0.00,,---,0.01,VWS V14.00,2015-07-02 17:01:00,
2015-07-02 11:10:00,73.6,59.8,29.89,NE,37,0.0,0.0,62,0.00,,---,0.01,VWS V14.00,2015-07-02 17:10:00,